Time;durP1;ratioP1;P1;durP2;ratioP2;P2;SDS_P1;SDS_P2;PMS_P1;PMS_P2;Temp;Humidity;BMP_temperature;BMP_pressure;BME280_temperature;BME280_humidity;BME280_pressure;Samples;Min_cycle;Max_cycle;Signal;HPM_P1;HPM_P2
2022/08/03 00:00:07;;;;;;;11.60;2.70;;;;;;;14.53;80.65;100146.81;104966;1271;60461;-74
2022/08/03 00:03:04;;;;;;;9.90;2.80;;;;;;;14.55;80.79;100142.14;104830;1273;74702;-74
2022/08/03 00:05:53;;;;;;;9.40;2.50;;;;;;;14.57;80.79;100145.19;104818;1271;68635;-75
2022/08/03 00:08:51;;;;;;;11.80;3.00;;;;;;;14.57;80.94;100143.75;104887;1271;74437;-76
2022/08/03 00:11:39;;;;;;;12.70;2.90;;;;;;;14.56;81.14;100146.04;104945;1271;59806;-75
2022/08/03 00:14:27;;;;;;;11.40;3.10;;;;;;;14.55;81.14;100144.31;105163;1271;62011;-76
2022/08/03 00:17:15;;;;;;;10.80;3.20;;;;;;;14.54;81.28;100142.38;105165;1271;72225;-75
2022/08/03 00:20:04;;;;;;;14.50;3.10;;;;;;;14.55;81.68;100134.96;104852;1271;66342;-75
2022/08/03 00:22:52;;;;;;;14.80;3.80;;;;;;;14.55;81.78;100135.33;104972;1271;71440;-75
2022/08/03 00:25:40;;;;;;;10.70;2.90;;;;;;;14.56;82.21;100130.05;104921;1271;59909;-75
2022/08/03 00:28:29;;;;;;;14.70;3.40;;;;;;;14.57;82.01;100125.20;105021;1271;60254;-74
2022/08/03 00:31:17;;;;;;;9.80;2.70;;;;;;;14.55;82.29;100124.29;105437;1271;74619;-74
2022/08/03 00:34:25;;;;;;;13.70;2.60;;;;;;;14.51;82.42;100121.29;105145;1273;69524;-75
2022/08/03 00:37:33;;;;;;;13.30;3.30;;;;;;;14.50;82.77;100124.03;105247;1271;72067;-75
2022/08/03 00:40:28;;;;;;;11.50;2.60;;;;;;;14.45;82.59;100115.41;104943;1271;61256;-74
2022/08/03 00:43:16;;;;;;;9.80;2.40;;;;;;;14.49;82.81;100118.98;104927;1271;59946;-74
2022/08/03 00:46:04;;;;;;;11.30;2.70;;;;;;;14.49;82.96;100118.76;105174;1271;74319;-72
2022/08/03 00:48:52;;;;;;;12.10;2.60;;;;;;;14.52;83.24;100118.57;104958;1274;68070;-74
2022/08/03 00:51:40;;;;;;;10.10;2.50;;;;;;;14.53;83.02;100117.37;104972;1271;71308;-72
2022/08/03 00:54:29;;;;;;;10.60;2.00;;;;;;;14.56;83.13;100118.50;105009;1271;59681;-74
2022/08/03 00:57:18;;;;;;;9.50;2.20;;;;;;;14.60;83.17;100120.78;105091;1271;59676;-74
2022/08/03 01:00:09;;;;;;;11.10;2.00;;;;;;;14.62;83.26;100118.45;104997;1271;72534;-74
2022/08/03 01:02:56;;;;;;;8.80;2.10;;;;;;;14.65;82.97;100115.55;104870;1271;69539;-73
2022/08/03 01:05:50;;;;;;;11.50;2.30;;;;;;;14.68;83.07;100116.36;105058;1272;71799;-73
2022/08/03 01:08:51;;;;;;;11.90;2.20;;;;;;;14.69;82.95;100112.46;105072;1272;59769;-73
2022/08/03 01:12:02;;;;;;;13.70;2.20;;;;;;;14.72;82.85;100112.88;105089;1271;59993;-73
2022/08/03 01:15:27;;;;;;;15.20;2.20;;;;;;;14.76;82.76;100110.08;105252;1271;73413;-75
2022/08/03 01:18:41;;;;;;;8.90;1.90;;;;;;;14.80;82.49;100108.56;104952;1271;69620;-75
2022/08/03 01:22:12;;;;;;;8.60;1.80;;;;;;;14.86;82.38;100101.86;105185;1271;72914;-74
2022/08/03 01:25:29;;;;;;;13.20;2.70;;;;;;;14.91;82.02;100103.11;105039;1273;59835;-73
2022/08/03 01:28:49;;;;;;;10.60;2.10;;;;;;;14.94;81.59;100098.66;105069;1271;60388;-74
2022/08/03 01:31:55;;;;;;;9.80;1.90;;;;;;;14.99;81.27;100094.29;104526;1281;74766;-74
2022/08/03 01:35:16;;;;;;;12.60;2.50;;;;;;;15.02;81.11;100089.58;104563;1281;68598;-74
2022/08/03 01:38:20;;;;;;;8.10;2.20;;;;;;;15.06;81.06;100095.10;104365;1281;72930;-73
2022/08/03 01:41:18;;;;;;;10.60;2.00;;;;;;;15.07;80.73;100091.73;104151;1281;59820;-74
2022/08/03 01:44:10;;;;;;;11.00;2.50;;;;;;;15.10;80.50;100093.20;104554;1281;60543;-75
2022/08/03 01:47:21;;;;;;;10.50;2.20;;;;;;;15.14;80.25;100090.20;104505;1281;73731;-75
2022/08/03 01:50:11;;;;;;;10.40;2.40;;;;;;;15.18;80.01;100087.67;104295;1281;68585;-72
2022/08/03 01:53:00;;;;;;;8.40;2.00;;;;;;;15.19;80.17;100087.57;104299;1281;73566;-74
2022/08/03 01:55:53;;;;;;;9.50;2.10;;;;;;;15.19;79.99;100085.23;104321;1281;59923;-73
2022/08/03 01:58:43;;;;;;;12.20;2.10;;;;;;;15.19;80.01;100082.20;104628;1281;60148;-73
2022/08/03 02:01:33;;;;;;;9.20;1.90;;;;;;;15.17;79.86;100078.48;104086;1281;73228;-75
2022/08/03 02:04:46;;;;;;;10.00;2.20;;;;;;;15.17;79.84;100079.20;104515;1281;68388;-73
2022/08/03 02:07:36;;;;;;;10.00;2.10;;;;;;;15.14;79.94;100080.11;104242;1271;72979;-75
2022/08/03 02:10:26;;;;;;;11.20;2.20;;;;;;;15.14;79.85;100072.27;104929;1271;61272;-74
2022/08/03 02:13:24;;;;;;;12.20;2.20;;;;;;;15.15;79.56;100074.70;105338;1271;59643;-74
2022/08/03 02:16:13;;;;;;;7.60;1.90;;;;;;;15.15;79.47;100071.52;105022;1271;73727;-74
2022/08/03 02:19:05;;;;;;;10.00;2.40;;;;;;;15.16;79.55;100070.36;104962;1271;70182;-74
2022/08/03 02:21:53;;;;;;;9.10;1.90;;;;;;;15.16;79.29;100068.55;104876;1271;71330;-74
2022/08/03 02:24:47;;;;;;;10.10;2.00;;;;;;;15.16;79.62;100067.84;104952;1271;59844;-71
2022/08/03 02:27:45;;;;;;;8.60;2.10;;;;;;;15.17;79.28;100063.86;105193;1271;60499;-73
2022/08/03 02:30:38;;;;;;;9.20;2.10;;;;;;;15.19;79.07;100058.65;105062;1274;74757;-75
2022/08/03 02:33:33;;;;;;;10.30;2.20;;;;;;;15.22;78.86;100054.71;104857;1274;69574;-74
2022/08/03 02:36:29;;;;;;;9.10;1.90;;;;;;;15.28;78.79;100058.45;105038;1271;74401;-74
2022/08/03 02:39:23;;;;;;;10.70;1.90;;;;;;;15.31;78.86;100058.46;105128;1271;59937;-75
2022/08/03 02:42:14;;;;;;;7.80;1.90;;;;;;;15.37;78.87;100057.96;104957;1271;62004;-72
2022/08/03 02:45:11;;;;;;;9.20;2.10;;;;;;;15.40;78.58;100057.10;104759;1276;73222;-74
2022/08/03 02:48:03;;;;;;;10.00;1.90;;;;;;;15.44;78.38;100054.35;104797;1274;66622;-73
2022/08/03 02:50:53;;;;;;;9.40;2.00;;;;;;;15.47;78.32;100054.77;104929;1271;72715;-73
2022/08/03 02:53:43;;;;;;;10.10;1.90;;;;;;;15.50;78.29;100053.91;104989;1271;59848;-73
2022/08/03 02:56:33;;;;;;;15.50;2.20;;;;;;;15.54;77.85;100052.02;105182;1271;59543;-73
2022/08/03 02:59:22;;;;;;;9.10;1.80;;;;;;;15.55;78.08;100052.20;104813;1274;73988;-74
2022/08/03 03:02:13;;;;;;;13.30;2.40;;;;;;;15.57;77.94;100046.14;105067;1272;67103;-73
2022/08/03 03:05:02;;;;;;;10.00;1.80;;;;;;;15.59;77.93;100047.59;105293;1274;72033;-75
2022/08/03 03:08:14;;;;;;;9.40;1.80;;;;;;;15.62;77.83;100051.01;105181;1271;59865;-73
2022/08/03 03:11:07;;;;;;;9.90;1.80;;;;;;;15.64;77.67;100054.35;104857;1271;59708;-74
2022/08/03 03:13:57;;;;;;;9.60;1.90;;;;;;;15.66;77.76;100050.59;105459;1271;74777;-74
2022/08/03 03:16:46;;;;;;;9.00;2.20;;;;;;;15.69;78.01;100052.52;104920;1274;69735;-75
2022/08/03 03:19:45;;;;;;;9.90;2.10;;;;;;;15.71;77.89;100050.70;104938;1271;73093;-75
2022/08/03 03:22:35;;;;;;;9.30;2.10;;;;;;;15.74;77.85;100050.76;104943;1271;61284;-74
2022/08/03 03:25:23;;;;;;;7.90;2.10;;;;;;;15.77;77.76;100050.73;104944;1271;62016;-73
2022/08/03 03:28:11;;;;;;;10.30;2.00;;;;;;;15.83;77.68;100054.10;105076;1271;73371;-73
2022/08/03 03:31:00;;;;;;;10.70;1.90;;;;;;;15.89;77.60;100056.60;104915;1271;68146;-75
2022/08/03 03:33:48;;;;;;;9.60;2.60;;;;;;;15.94;77.41;100052.34;104977;1271;72355;-76
2022/08/03 03:36:36;;;;;;;9.00;2.30;;;;;;;15.99;77.19;100058.12;104887;1271;60449;-73
2022/08/03 03:39:24;;;;;;;9.30;2.30;;;;;;;16.04;77.20;100053.91;104937;1271;61023;-74
2022/08/03 03:42:13;;;;;;;9.60;2.10;;;;;;;16.08;76.99;100058.07;105033;1271;74567;-74
2022/08/03 03:45:07;;;;;;;9.90;2.20;;;;;;;16.14;76.97;100057.84;105163;1271;67437;-74
2022/08/03 03:47:54;;;;;;;11.80;2.20;;;;;;;16.21;76.74;100063.04;104989;1271;73591;-73
2022/08/03 03:50:44;;;;;;;9.90;2.20;;;;;;;16.28;76.69;100061.61;104881;1271;60021;-74
2022/08/03 03:53:32;;;;;;;9.70;2.30;;;;;;;16.37;76.62;100065.07;104863;1271;60358;-74
2022/08/03 03:56:20;;;;;;;10.20;2.30;;;;;;;16.44;76.32;100069.48;105189;1274;74231;-75
2022/08/03 03:59:08;;;;;;;10.10;1.90;;;;;;;16.52;76.26;100068.14;104952;1271;68493;-73
2022/08/03 04:01:57;;;;;;;9.00;2.10;;;;;;;16.60;75.79;100070.02;104902;1271;74436;-74
2022/08/03 04:11:23;;;;;;;11.50;2.40;;;;;;;16.92;74.72;100080.58;105126;1271;73226;-74
2022/08/03 04:14:36;;;;;;;8.50;2.20;;;;;;;17.05;74.10;100076.51;105159;1271;66879;-75
2022/08/03 04:17:28;;;;;;;8.50;1.90;;;;;;;17.18;73.44;100076.39;104994;1271;72929;-75
2022/08/03 04:20:20;;;;;;;9.80;1.80;;;;;;;17.30;73.11;100074.79;105073;1274;59593;-75
2022/08/03 04:23:10;;;;;;;10.50;1.70;;;;;;;17.43;72.50;100076.25;105320;1271;60649;-74
2022/08/03 04:26:08;;;;;;;10.10;2.30;;;;;;;17.55;71.34;100076.71;105019;1271;74261;-77
2022/08/03 04:28:57;;;;;;;10.30;2.00;;;;;;;17.71;71.00;100080.48;105180;1274;68351;-75
2022/08/03 04:31:47;;;;;;;8.50;2.30;;;;;;;17.89;70.61;100081.59;104928;1274;72719;-75
2022/08/03 04:34:35;;;;;;;7.70;2.10;;;;;;;18.09;69.74;100085.77;104799;1271;59685;-75
2022/08/03 04:37:46;;;;;;;9.70;2.10;;;;;;;18.26;68.90;100086.38;105243;1271;59626;-73
2022/08/03 04:40:38;;;;;;;10.30;2.00;;;;;;;18.46;67.45;100087.13;104966;1271;73145;-74
2022/08/03 04:43:28;;;;;;;9.00;2.50;;;;;;;18.61;66.94;100086.34;104944;1272;69019;-74
2022/08/03 04:46:20;;;;;;;10.10;2.10;;;;;;;18.79;66.39;100082.55;104995;1271;72860;-74
2022/08/03 04:49:09;;;;;;;7.90;2.20;;;;;;;18.99;65.78;100084.48;105347;1271;59547;-73
2022/08/03 04:51:58;;;;;;;10.40;2.30;;;;;;;19.16;65.06;100086.31;105034;1271;59646;-72
2022/08/03 04:54:47;;;;;;;7.80;1.90;;;;;;;19.34;64.19;100087.17;105032;1271;73593;-74
2022/08/03 04:57:37;;;;;;;9.80;2.20;;;;;;;19.47;62.67;100088.66;105050;1271;68595;-74
2022/08/03 05:00:26;;;;;;;6.50;1.80;;;;;;;19.59;61.91;100088.52;104932;1271;72871;-73
2022/08/03 05:03:14;;;;;;;9.40;2.20;;;;;;;19.73;61.26;100091.62;105017;1271;59624;-74
2022/08/03 05:06:11;;;;;;;10.50;2.50;;;;;;;19.85;60.68;100088.84;105023;1271;59601;-74
2022/08/03 05:09:03;;;;;;;9.80;2.30;;;;;;;19.98;60.22;100092.77;104738;1273;74797;-74
2022/08/03 05:11:52;;;;;;;9.10;2.00;;;;;;;20.08;59.85;100095.20;104976;1271;69601;-73
2022/08/03 05:14:40;;;;;;;11.10;3.00;;;;;;;20.20;59.38;100097.69;105063;1271;74482;-74
2022/08/03 05:17:28;;;;;;;9.30;2.30;;;;;;;20.33;58.72;100092.21;105050;1271;59579;-74
2022/08/03 05:20:16;;;;;;;9.10;2.10;;;;;;;20.50;58.25;100096.02;105143;1271;61528;-75
2022/08/03 05:23:05;;;;;;;17.30;2.40;;;;;;;20.69;57.76;100099.31;105042;1271;72155;-73
2022/08/03 05:25:53;;;;;;;9.10;2.20;;;;;;;20.89;57.01;100095.33;104572;1271;335871;-73
2022/08/03 05:28:42;;;;;;;12.30;2.30;;;;;;;21.10;56.36;100095.88;105377;1271;72357;-77
2022/08/03 05:31:39;;;;;;;9.90;2.30;;;;;;;21.30;55.54;100094.85;104935;1275;59723;-75
2022/08/03 05:34:27;;;;;;;11.00;2.70;;;;;;;21.50;54.87;100097.84;104842;1271;62147;-73
2022/08/03 05:37:15;;;;;;;10.60;2.00;;;;;;;21.72;53.99;100098.70;104958;1271;74803;-73
2022/08/03 05:40:05;;;;;;;9.30;2.30;;;;;;;22.00;53.37;100103.11;105013;1271;69286;-73
2022/08/03 05:42:52;;;;;;;11.30;2.30;;;;;;;22.31;52.60;100101.54;105344;1271;74000;-74
2022/08/03 05:45:40;;;;;;;10.50;2.50;;;;;;;22.57;51.95;100100.55;105123;1271;60070;-71
2022/08/03 05:48:28;;;;;;;9.10;2.20;;;;;;;22.94;50.94;100099.97;104916;1271;60799;-73
2022/08/03 05:51:16;;;;;;;12.60;2.30;;;;;;;23.33;50.10;100103.61;104820;1271;74820;-73
2022/08/03 05:54:05;;;;;;;10.40;2.20;;;;;;;23.69;49.72;100104.54;105389;1271;68502;-74
2022/08/03 05:56:53;;;;;;;13.00;2.20;;;;;;;24.40;48.30;100099.23;105061;1271;72777;-77
2022/08/03 05:59:40;;;;;;;10.30;2.40;;;;;;;25.10;46.36;100103.16;104948;1271;59603;-78
2022/08/03 06:02:45;;;;;;;12.20;1.90;;;;;;;25.98;43.86;100094.48;106035;1271;59646;-80
2022/08/03 06:05:35;;;;;;;14.00;3.10;;;;;;;26.54;42.02;100094.85;105877;1271;71953;-78
2022/08/03 06:08:30;;;;;;;13.40;2.00;;;;;;;27.72;40.42;100099.55;106206;1271;66806;-75
2022/08/03 06:11:18;;;;;;;12.90;2.30;;;;;;;28.80;37.68;100095.14;106043;1271;72848;-78
2022/08/03 06:14:05;;;;;;;8.90;1.80;;;;;;;30.00;35.49;100096.66;106602;1273;59652;-77
2022/08/03 06:16:53;;;;;;;11.80;1.90;;;;;;;31.08;33.23;100094.39;106285;1271;59499;-75
2022/08/03 06:19:41;;;;;;;9.50;1.70;;;;;;;32.24;31.35;100096.66;105719;1271;71938;-77
2022/08/03 06:22:29;;;;;;;8.60;1.60;;;;;;;33.18;28.46;100095.48;105399;1271;66970;-75
2022/08/03 06:25:19;;;;;;;16.60;1.80;;;;;;;33.96;27.70;100093.23;106169;1271;71599;-77
2022/08/03 06:28:07;;;;;;;10.70;1.70;;;;;;;34.51;25.99;100089.73;106517;1271;59499;-77
2022/08/03 06:31:10;;;;;;;7.10;1.50;;;;;;;34.96;25.31;100089.85;106135;1271;60472;-78
2022/08/03 06:33:58;;;;;;;7.50;1.50;;;;;;;35.55;23.57;100089.06;106014;1271;71895;-77
2022/08/03 06:37:06;;;;;;;8.60;1.50;;;;;;;35.78;22.57;100090.31;106179;1271;66717;-79
2022/08/03 06:39:54;;;;;;;10.90;1.40;;;;;;;35.71;21.77;100091.30;106020;1271;71548;-77
2022/08/03 06:42:42;;;;;;;7.30;1.60;;;;;;;35.64;21.59;100087.90;106241;1271;59722;-81
2022/08/03 06:45:34;;;;;;;8.40;1.40;;;;;;;35.73;21.28;100085.08;105465;1271;60207;-79
2022/08/03 06:48:26;;;;;;;9.30;1.50;;;;;;;36.22;21.05;100086.52;106070;1271;71956;-77
2022/08/03 06:51:14;;;;;;;10.20;1.20;;;;;;;36.93;20.34;100084.00;106056;1271;68120;-77
2022/08/03 06:54:03;;;;;;;7.80;1.40;;;;;;;37.46;18.67;100082.91;105890;1271;72748;-78
2022/08/03 06:56:52;;;;;;;9.60;1.00;;;;;;;37.52;18.49;100080.81;105696;1271;59787;-77
2022/08/03 06:59:40;;;;;;;8.70;1.40;;;;;;;37.72;18.00;100080.53;106034;1271;60478;-77
2022/08/03 07:02:48;;;;;;;6.90;1.20;;;;;;;38.42;17.69;100080.80;105576;1273;71815;-77
2022/08/03 07:05:45;;;;;;;6.60;1.20;;;;;;;38.96;16.99;100074.21;105858;1271;68671;-80
2022/08/03 07:08:33;;;;;;;7.20;1.10;;;;;;;39.68;16.08;100076.91;106561;1271;72515;-76
2022/08/03 07:11:23;;;;;;;7.30;1.20;;;;;;;40.25;15.47;100077.48;106768;1271;59599;-80
2022/08/03 07:14:10;;;;;;;5.50;1.10;;;;;;;40.43;14.80;100074.29;106884;1271;60325;-77
2022/08/03 07:16:59;;;;;;;9.00;1.40;;;;;;;40.45;14.94;100074.67;106451;1271;71505;-79
2022/08/03 07:19:49;;;;;;;8.70;1.30;;;;;;;40.81;15.37;100068.30;106201;1271;67897;-77
2022/08/03 07:22:37;;;;;;;6.50;1.00;;;;;;;41.12;14.42;100070.14;106400;1271;72933;-77
2022/08/03 07:25:26;;;;;;;6.70;1.20;;;;;;;41.22;13.86;100069.02;106029;1271;59831;-77
2022/08/03 07:28:14;;;;;;;8.60;1.30;;;;;;;41.33;14.04;100069.96;106262;1271;59658;-77
2022/08/03 07:31:02;;;;;;;10.80;1.30;;;;;;;41.42;13.94;100068.30;106077;1271;73290;-80
2022/08/03 07:33:50;;;;;;;7.50;1.20;;;;;;;41.41;14.24;100068.96;106211;1271;66816;-77
2022/08/03 07:36:38;;;;;;;5.60;1.10;;;;;;;41.58;14.17;100063.88;105980;1271;71607;-82
2022/08/03 07:39:26;;;;;;;7.40;1.20;;;;;;;41.78;13.85;100064.30;105933;1271;59686;-77
2022/08/03 07:42:14;;;;;;;7.60;1.30;;;;;;;41.92;13.56;100068.13;105729;1271;60659;-76
2022/08/03 07:45:03;;;;;;;7.80;1.00;;;;;;;41.90;13.41;100067.48;106026;1271;74779;-78
2022/08/03 07:47:50;;;;;;;6.50;1.10;;;;;;;41.82;13.57;100066.09;105227;1271;66866;-73
2022/08/03 07:50:40;;;;;;;8.50;1.30;;;;;;;41.70;13.72;100064.27;105281;1271;71639;-72
2022/08/03 07:53:28;;;;;;;7.30;1.40;;;;;;;41.67;13.67;100060.43;105001;1271;59649;-72
2022/08/03 07:56:16;;;;;;;9.60;1.40;;;;;;;42.04;13.82;100065.54;105104;1271;59774;-73
2022/08/03 07:59:04;;;;;;;8.70;1.00;;;;;;;42.47;13.80;100059.89;104997;1271;71705;-73
2022/08/03 08:01:55;;;;;;;7.40;1.10;;;;;;;42.51;13.22;100062.14;105093;1271;68599;-73
2022/08/03 08:04:43;;;;;;;9.70;1.70;;;;;;;42.43;13.60;100056.55;105104;1271;71048;-72
2022/08/03 08:07:31;;;;;;;8.90;2.20;;;;;;;42.48;13.83;100055.62;104898;1273;59773;-73
2022/08/03 08:10:19;;;;;;;8.00;1.30;;;;;;;43.00;13.61;100057.45;105238;1271;59597;-74
2022/08/03 08:13:07;;;;;;;6.60;1.20;;;;;;;43.29;13.00;100051.61;105306;1271;74789;-73
2022/08/03 08:15:55;;;;;;;9.90;1.20;;;;;;;43.41;12.94;100054.73;105052;1271;67171;-72
2022/08/03 08:18:43;;;;;;;7.30;1.10;;;;;;;43.01;13.04;100056.20;105119;1271;72817;-75
2022/08/03 08:21:31;;;;;;;8.10;1.00;;;;;;;42.33;13.60;100059.70;105058;1271;59640;-72
2022/08/03 08:24:39;;;;;;;6.90;1.30;;;;;;;41.71;13.73;100055.67;105381;1271;59658;-73
2022/08/03 08:27:29;;;;;;;6.30;1.20;;;;;;;41.35;14.45;100053.55;105047;1271;73184;-73
2022/08/03 08:30:40;;;;;;;8.20;1.00;;;;;;;41.42;14.10;100056.84;105316;1271;69224;-73
2022/08/03 08:33:28;;;;;;;7.60;1.20;;;;;;;40.98;14.61;100054.48;105035;1271;74791;-72
2022/08/03 08:36:36;;;;;;;8.40;1.50;;;;;;;41.07;14.90;100052.52;105297;1271;59656;-72
2022/08/03 08:39:24;;;;;;;7.00;1.00;;;;;;;41.33;14.69;100053.13;105022;1271;60857;-71
2022/08/03 08:42:14;;;;;;;7.10;1.20;;;;;;;41.79;14.31;100054.94;105543;1271;74492;-72
2022/08/03 08:45:05;;;;;;;7.00;1.10;;;;;;;41.89;14.01;100054.59;105040;1271;68286;-71
2022/08/03 08:47:56;;;;;;;7.60;1.30;;;;;;;42.04;14.13;100052.19;105266;1271;71595;-70
2022/08/03 08:50:53;;;;;;;7.70;1.30;;;;;;;41.81;14.20;100055.82;105040;1271;59745;-71
2022/08/03 08:53:46;;;;;;;9.30;1.60;;;;;;;42.11;14.30;100059.28;105148;1272;60288;-70
2022/08/03 08:56:37;;;;;;;9.10;4.40;;;;;;;42.24;14.00;100055.27;105103;1273;73310;-71
2022/08/03 08:59:26;;;;;;;9.50;2.40;;;;;;;42.28;13.91;100054.13;105266;1271;69172;-69
2022/08/03 09:02:34;;;;;;;7.10;1.80;;;;;;;42.31;14.68;100051.56;105088;1271;71641;-73
2022/08/03 09:05:22;;;;;;;12.40;2.40;;;;;;;42.34;15.94;100053.44;105325;1271;60069;-74
2022/08/03 09:08:32;;;;;;;11.40;2.40;;;;;;;42.15;16.33;100054.13;105486;1271;60507;-74
2022/08/03 09:11:22;;;;;;;16.20;2.70;;;;;;;41.88;16.45;100057.58;104994;1273;74331;-73
2022/08/03 09:14:31;;;;;;;12.60;2.60;;;;;;;41.98;16.65;100051.55;105591;1271;69643;-74
2022/08/03 09:17:40;;;;;;;8.50;1.90;;;;;;;42.09;16.28;100048.77;105109;1271;71746;-74
2022/08/03 09:20:32;;;;;;;11.40;2.20;;;;;;;42.26;16.17;100046.32;105127;1271;59637;-75
2022/08/03 09:23:20;;;;;;;12.50;2.40;;;;;;;42.23;15.95;100049.45;105011;1271;60517;-74
2022/08/03 09:26:30;;;;;;;12.30;2.40;;;;;;;42.22;16.13;100050.69;105396;1271;73321;-74
2022/08/03 09:29:20;;;;;;;12.10;2.30;;;;;;;42.12;16.06;100044.81;105454;1271;68750;-73
2022/08/03 09:32:10;;;;;;;11.00;2.10;;;;;;;41.89;15.90;100052.77;104992;1273;72835;-75
2022/08/03 09:35:04;;;;;;;16.50;2.40;;;;;;;40.98;16.79;100045.12;104919;1271;59746;-74
2022/08/03 09:38:22;;;;;;;11.40;2.00;;;;;;;39.99;17.28;100051.10;105141;1271;61408;-74
2022/08/03 09:41:18;;;;;;;9.10;1.90;;;;;;;40.17;17.21;100049.84;105280;1271;73236;-71
2022/08/03 09:44:07;;;;;;;10.90;2.40;;;;;;;39.95;16.99;100042.52;105027;1271;66751;-71
2022/08/03 09:47:15;;;;;;;9.90;2.10;;;;;;;39.89;17.30;100044.60;105327;1271;72982;-73
2022/08/03 09:50:07;;;;;;;8.90;2.10;;;;;;;40.16;17.16;100039.88;104966;1271;60653;-71
2022/08/03 09:53:00;;;;;;;7.60;1.70;;;;;;;40.37;16.69;100041.73;105112;1271;60498;-71
2022/08/03 09:55:52;;;;;;;7.90;1.50;;;;;;;40.65;15.98;100044.70;104987;1271;73094;-72
2022/08/03 09:59:00;;;;;;;9.30;1.50;;;;;;;40.77;15.85;100049.77;105163;1271;70044;-74
2022/08/03 10:01:51;;;;;;;7.90;1.40;;;;;;;40.08;16.49;100046.85;105104;1271;71062;-73
2022/08/03 10:04:51;;;;;;;7.10;1.70;;;;;;;40.18;16.56;100045.55;105126;1271;59666;-74
2022/08/03 10:07:47;;;;;;;9.70;1.60;;;;;;;40.26;16.30;100048.25;105173;1271;59912;-73
2022/08/03 10:10:43;;;;;;;8.10;1.50;;;;;;;40.37;16.36;100044.89;104935;1273;72940;-73
2022/08/03 10:13:31;;;;;;;7.50;1.80;;;;;;;39.41;17.12;100039.67;105079;1271;67407;-74
2022/08/03 10:16:19;;;;;;;10.80;1.70;;;;;;;39.43;17.04;100035.01;105034;1271;74608;-72
2022/08/03 10:19:13;;;;;;;9.60;2.00;;;;;;;39.85;16.83;100034.18;105005;1271;59563;-71
2022/08/03 10:22:11;;;;;;;8.20;1.60;;;;;;;40.06;16.21;100031.27;105045;1271;61988;-72
2022/08/03 10:25:10;;;;;;;10.10;1.60;;;;;;;40.21;16.03;100029.61;105091;1271;73298;-72
2022/08/03 10:28:03;;;;;;;7.10;1.60;;;;;;;40.31;16.27;100026.67;105234;1271;66358;-74
2022/08/03 10:30:54;;;;;;;7.00;1.40;;;;;;;40.20;16.19;100028.45;105182;1272;74364;-73
2022/08/03 10:33:47;;;;;;;10.60;1.60;;;;;;;39.10;17.00;100024.84;105138;1271;59762;-73
2022/08/03 10:36:40;;;;;;;6.60;1.50;;;;;;;39.41;17.06;100026.70;105015;1270;61083;-71
2022/08/03 10:39:29;;;;;;;8.70;1.40;;;;;;;39.73;16.71;100026.40;105035;1271;74206;-74
2022/08/03 10:42:19;;;;;;;7.00;1.80;;;;;;;39.90;16.26;100023.48;105158;1271;68672;-70
2022/08/03 10:45:25;;;;;;;9.70;1.90;;;;;;;40.04;16.16;100019.18;104856;1273;73156;-71
2022/08/03 10:48:14;;;;;;;7.90;1.80;;;;;;;40.32;15.89;100012.66;105061;1271;59687;-73
2022/08/03 10:51:03;;;;;;;9.20;2.40;;;;;;;40.30;15.60;100019.45;104885;1271;60539;-73
2022/08/03 10:53:52;;;;;;;8.40;1.70;;;;;;;40.24;15.76;100015.64;104893;1273;75293;-73
2022/08/03 11:00:17;;;;;;;9.00;1.80;;;;;;;38.28;17.44;100017.47;105106;1273;71402;-72
2022/08/03 11:03:13;;;;;;;9.40;1.70;;;;;;;38.92;16.69;100015.84;104874;1271;59722;-73
2022/08/03 11:06:17;;;;;;;8.40;1.80;;;;;;;39.60;16.36;100018.52;105022;1271;59771;-72
2022/08/03 11:09:08;;;;;;;7.00;1.80;;;;;;;40.33;15.88;100018.08;105364;1271;71963;-75
2022/08/03 11:11:56;;;;;;;7.20;1.80;;;;;;;41.01;15.27;100011.45;105042;1271;68118;-71
2022/08/03 11:14:47;;;;;;;7.50;1.50;;;;;;;41.05;15.27;100008.73;105143;1271;71508;-74
2022/08/03 11:17:37;;;;;;;9.30;2.00;;;;;;;40.92;15.27;100008.39;105429;1271;59776;-75
2022/08/03 11:20:54;;;;;;;9.40;2.40;;;;;;;41.11;15.30;100004.95;105408;1271;59630;-76
2022/08/03 11:23:47;;;;;;;9.60;3.40;;;;;;;41.10;15.47;100001.57;105025;1271;74593;-80
2022/08/03 11:27:18;;;;;;;10.10;2.10;;;;;;;40.62;15.69;99998.84;105017;1271;67033;-74
2022/08/03 11:30:27;;;;;;;9.40;3.20;;;;;;;39.36;16.82;100003.26;105165;1273;71627;-72
2022/08/03 11:33:30;;;;;;;8.20;1.80;;;;;;;38.73;17.53;99997.51;104979;1271;59771;-72
2022/08/03 11:36:18;;;;;;;9.20;2.00;;;;;;;38.28;18.15;99997.35;105427;1271;59681;-74
2022/08/03 11:39:19;;;;;;;7.80;2.20;;;;;;;38.00;18.70;99999.80;105252;1271;74314;-73
2022/08/03 11:42:34;;;;;;;9.80;2.00;;;;;;;37.73;19.04;100000.30;105198;1271;69114;-72
2022/08/03 11:45:21;;;;;;;9.40;1.90;;;;;;;37.44;19.10;100002.52;105283;1271;74425;-75
2022/08/03 11:48:15;;;;;;;10.10;2.00;;;;;;;37.03;19.60;100001.58;105312;1271;59531;-74
2022/08/03 11:51:06;;;;;;;8.30;1.90;;;;;;;36.57;20.43;99997.25;104853;1273;59567;-77
2022/08/03 11:54:01;;;;;;;7.50;1.70;;;;;;;36.23;21.52;99991.02;105032;1273;70960;-74
2022/08/03 11:56:49;;;;;;;11.70;2.70;;;;;;;35.72;22.08;99997.70;105060;1271;67106;-71
2022/08/03 11:59:37;;;;;;;7.90;2.30;;;;;;;35.11;22.84;99997.19;104975;1271;74382;-74
2022/08/03 12:02:25;;;;;;;9.10;2.30;;;;;;;34.45;22.89;99997.53;104984;1271;59722;-72
2022/08/03 12:05:13;;;;;;;10.20;2.20;;;;;;;33.96;23.68;100003.94;105302;1272;61554;-74
2022/08/03 12:08:02;;;;;;;8.70;2.40;;;;;;;33.56;23.44;100006.82;104940;1273;73319;-78
2022/08/03 12:10:56;;;;;;;8.20;2.30;;;;;;;33.21;23.43;99994.66;105162;1271;69661;-76
2022/08/03 12:13:52;;;;;;;10.60;2.60;;;;;;;33.02;24.75;99996.74;105201;1271;72871;-75
2022/08/03 12:17:00;;;;;;;6.90;2.10;;;;;;;32.65;24.25;99989.23;105231;1271;59714;-74
2022/08/03 12:19:48;;;;;;;9.10;2.20;;;;;;;32.17;26.40;99995.54;105282;1271;59829;-74
2022/08/03 12:22:39;;;;;;;8.80;2.30;;;;;;;31.83;28.44;99984.77;105246;1271;75038;-77
2022/08/03 12:25:27;;;;;;;10.50;2.60;;;;;;;31.68;29.27;99985.59;105326;1271;68107;-77
2022/08/03 12:28:26;;;;;;;9.70;3.10;;;;;;;31.54;29.79;99989.19;105319;1271;72479;-77
2022/08/03 12:31:24;;;;;;;9.00;2.40;;;;;;;31.47;29.78;99990.80;105794;1271;59628;-73
2022/08/03 12:34:13;;;;;;;14.40;2.70;;;;;;;31.39;29.72;99991.11;105350;1273;59771;-77
2022/08/03 12:37:04;;;;;;;8.50;2.70;;;;;;;31.29;29.90;99987.88;104956;1271;71977;-76
2022/08/03 12:40:12;;;;;;;10.70;2.90;;;;;;;31.15;30.37;99987.63;105390;1271;68137;-75
2022/08/03 12:43:12;;;;;;;9.70;2.80;;;;;;;30.97;31.78;99982.33;105074;1271;73072;-76
2022/08/03 12:46:11;;;;;;;9.70;2.70;;;;;;;30.84;32.33;99977.49;105446;1271;59737;-75
2022/08/03 12:49:08;;;;;;;8.90;3.00;;;;;;;30.68;32.20;99975.93;105173;1271;60629;-76
2022/08/03 12:51:59;;;;;;;10.70;2.90;;;;;;;30.65;32.64;99977.23;105386;1271;73248;-74
2022/08/03 12:54:55;;;;;;;7.10;2.70;;;;;;;30.69;32.97;99976.33;105095;1271;68094;-75
2022/08/03 12:57:44;;;;;;;9.20;2.60;;;;;;;30.62;33.21;99966.36;105007;1271;72591;-75
2022/08/03 13:00:32;;;;;;;8.60;2.80;;;;;;;30.62;33.60;99969.65;105061;1271;59555;-76
2022/08/03 13:03:21;;;;;;;10.20;2.80;;;;;;;30.67;33.37;99969.84;105114;1271;59674;-75
2022/08/03 13:06:28;;;;;;;9.20;2.80;;;;;;;30.67;33.15;99964.94;105304;1271;73286;-77
2022/08/03 13:09:17;;;;;;;10.90;3.30;;;;;;;30.58;32.94;99971.80;105227;1271;66783;-77
2022/08/03 13:12:10;;;;;;;10.10;4.30;;;;;;;30.58;33.06;99968.72;105611;1271;72879;-75
2022/08/03 13:14:59;;;;;;;10.50;3.10;;;;;;;30.65;33.08;99961.62;105298;1271;59751;-76
2022/08/03 13:17:48;;;;;;;9.40;3.20;;;;;;;30.70;33.27;99961.68;105144;1271;60557;-74
2022/08/03 13:20:35;;;;;;;9.40;3.60;;;;;;;30.77;32.79;99956.27;105327;1273;73171;-75
2022/08/03 13:23:24;;;;;;;9.80;2.70;;;;;;;30.82;31.90;99956.83;105227;1272;68048;-76